createdAt,value
2023-05-12T00:01:34.087Z,101479.09
2023-05-12T00:04:02.479Z,101481.75
2023-05-12T00:06:31.448Z,101478.97
2023-05-12T00:09:01.561Z,101475.09
2023-05-12T00:11:29.814Z,101473.19
2023-05-12T00:13:58.073Z,101472.00
2023-05-12T00:16:26.312Z,101466.94
2023-05-12T00:18:54.927Z,101464.22
2023-05-12T00:21:23.114Z,101465.34
2023-05-12T00:23:51.372Z,101466.09
2023-05-12T00:26:21.027Z,101461.03
2023-05-12T00:28:49.274Z,101459.78
2023-05-12T00:31:17.634Z,101462.03
2023-05-12T00:33:45.906Z,101453.06
2023-05-12T00:36:14.130Z,101456.94
2023-05-12T00:38:42.426Z,101461.25
2023-05-12T00:41:11.134Z,101454.22
2023-05-12T00:43:40.731Z,101455.38
2023-05-12T00:46:09.957Z,101451.91
2023-05-12T00:48:38.784Z,101453.44
2023-05-12T00:51:07.464Z,101449.94
2023-05-12T00:53:48.220Z,101451.81
2023-05-12T00:56:19.859Z,101442.34
2023-05-12T00:58:49.672Z,101444.66
2023-05-12T01:01:18.216Z,101446.22
2023-05-12T01:03:47.495Z,101432.63
2023-05-12T01:06:21.957Z,101435.34
2023-05-12T01:08:50.394Z,101428.34
2023-05-12T01:11:18.634Z,101433.78
2023-05-12T01:13:46.935Z,101430.28
2023-05-12T01:16:18.672Z,101422.03
2023-05-12T01:18:51.405Z,101426.34
2023-05-12T01:21:20.631Z,101423.63
2023-05-12T01:23:57.133Z,101423.16
2023-05-12T01:26:27.146Z,101425.41
2023-05-12T01:28:56.070Z,101418.84
2023-05-12T01:31:25.362Z,101421.22
2023-05-12T01:33:53.753Z,101415.28
2023-05-12T01:36:22.451Z,101419.59
2023-05-12T01:38:50.781Z,101408.69
2023-05-12T01:41:18.964Z,101408.59
2023-05-12T01:43:48.669Z,101406.22
2023-05-12T01:46:16.995Z,101411.69
2023-05-12T01:48:45.290Z,101412.47
2023-05-12T01:51:13.545Z,101404.31
2023-05-12T01:53:42.281Z,101399.16
2023-05-12T01:56:10.584Z,101407.69
2023-05-12T01:58:38.803Z,101397.19
2023-05-12T02:01:08.346Z,101401.75
2023-05-12T02:03:37.958Z,101403.69
2023-05-12T02:06:06.866Z,101399.44
2023-05-12T02:08:35.064Z,101390.88
2023-05-12T02:11:07.398Z,101393.69
2023-05-12T02:13:36.077Z,101389.72
2023-05-12T02:16:05.066Z,101383.47
2023-05-12T02:18:34.839Z,101390.47
2023-05-12T02:21:03.118Z,101383.47
2023-05-12T02:23:31.307Z,101387.34
2023-05-12T02:25:59.589Z,101382.56
2023-05-12T02:28:27.821Z,101383.25
2023-05-12T02:30:56.021Z,101380.94
2023-05-12T02:33:24.420Z,101375.50
2023-05-12T02:35:54.061Z,101378.22
2023-05-12T02:38:22.289Z,101380.16
2023-05-12T02:40:50.682Z,101368.88
2023-05-12T02:43:18.878Z,101358.38
2023-05-12T02:45:47.116Z,101354.41
2023-05-12T02:48:15.324Z,101357.44
2023-05-12T02:50:43.519Z,101355.06
2023-05-12T02:53:13.283Z,101360.50
2023-05-12T02:55:41.544Z,101348.06
2023-05-12T02:58:10.210Z,101347.25
2023-05-12T03:00:38.509Z,101349.22
2023-05-12T03:03:06.859Z,101341.81
2023-05-12T03:05:35.179Z,101335.63
2023-05-12T03:08:03.635Z,101339.50
2023-05-12T03:10:33.312Z,101337.56
2023-05-12T03:13:01.533Z,101337.56
2023-05-12T03:15:29.694Z,101336.38
2023-05-12T03:17:58.010Z,101325.50
2023-05-12T03:20:26.251Z,101332.53
2023-05-12T03:22:54.520Z,101337.19
2023-05-12T03:25:22.678Z,101322.78
2023-05-12T03:27:52.353Z,101314.63
2023-05-12T03:30:20.738Z,101313.88
2023-05-12T03:32:49.261Z,101320.50
2023-05-12T03:35:17.601Z,101327.53
2023-05-12T03:37:45.793Z,101315.53
2023-05-12T03:40:18.594Z,101323.72
2023-05-12T03:42:47.252Z,101326.09
2023-05-12T03:45:16.846Z,101315.22
2023-05-12T03:47:45.284Z,101320.66
2023-05-12T03:50:13.600Z,101323.81
2023-05-12T03:52:42.190Z,101314.50
2023-05-12T03:55:10.937Z,101321.56
2023-05-12T03:57:39.176Z,101314.56
2023-05-12T04:00:11.633Z,101308.75
2023-05-12T04:02:41.549Z,101311.88
2023-05-12T04:05:10.781Z,101311.09
2023-05-12T04:07:39.374Z,101316.63
2023-05-12T04:10:09.628Z,101315.88
2023-05-12T04:12:37.871Z,101312.78
2023-05-12T04:15:08.075Z,101314.81
2023-05-12T04:17:36.378Z,101319.84
2023-05-12T04:20:07.585Z,101320.28
2023-05-12T04:22:35.852Z,101323.44
2023-05-12T04:25:04.088Z,101323.44
2023-05-12T04:27:32.288Z,101326.94
2023-05-12T04:30:00.573Z,101336.28
2023-05-12T04:32:28.850Z,101338.66
2023-05-12T04:34:57.234Z,101342.53
2023-05-12T04:37:27.349Z,101347.63
2023-05-12T04:39:55.582Z,101354.97
2023-05-12T04:42:23.885Z,101358.84
2023-05-12T04:44:52.130Z,101360.78
2023-05-12T04:47:21.510Z,101365.81
2023-05-12T04:49:49.782Z,101377.84
2023-05-12T04:52:18.027Z,101372.72
2023-05-12T04:54:47.626Z,101378.84
2023-05-12T04:57:15.850Z,101376.13
2023-05-12T04:59:44.123Z,101385.09
2023-05-12T05:02:13.016Z,101389.72
2023-05-12T05:04:41.413Z,101393.69
2023-05-12T05:07:09.880Z,101403.03
2023-05-12T05:09:38.128Z,101399.16
2023-05-12T05:12:09.106Z,101411.66
2023-05-12T05:14:37.351Z,101414.00
2023-05-12T05:17:07.091Z,101422.56
2023-05-12T05:19:44.576Z,101428.09
2023-05-12T05:22:20.737Z,101436.28
2023-05-12T05:24:49.004Z,101436.59
2023-05-12T05:27:18.684Z,101435.81
2023-05-12T05:29:47.010Z,101444.44
2023-05-12T05:32:15.240Z,101447.47
2023-05-12T05:34:43.602Z,101446.69
2023-05-12T05:37:13.108Z,101443.66
2023-05-12T05:39:41.364Z,101456.78
2023-05-12T05:42:09.791Z,101452.13
2023-05-12T05:44:39.355Z,101454.84
2023-05-12T05:47:07.849Z,101452.13
2023-05-12T05:49:36.770Z,101451.44
2023-05-12T05:52:05.448Z,101461.16
2023-05-12T05:54:33.660Z,101461.56
2023-05-12T05:57:03.173Z,101470.19
2023-05-12T05:59:32.249Z,101469.06
2023-05-12T06:02:01.930Z,101473.31
2023-05-12T06:04:30.397Z,101479.19
2023-05-12T06:06:58.728Z,101490.53
2023-05-12T06:09:26.949Z,101489.75
2023-05-12T06:11:55.255Z,101487.44
2023-05-12T06:14:23.609Z,101492.13
2023-05-12T06:16:52.478Z,101503.38
2023-05-12T06:19:22.119Z,101501.53
2023-05-12T06:21:51.800Z,101504.28
2023-05-12T06:24:20.003Z,101507.78
2023-05-12T06:26:48.727Z,101517.13
2023-05-12T06:29:17.022Z,101515.97
2023-05-12T06:31:45.326Z,101521.00
2023-05-12T06:34:13.926Z,101529.16
2023-05-12T06:36:43.707Z,101517.13
2023-05-12T06:39:12.133Z,101528.75
2023-05-12T06:41:40.902Z,101522.56
2023-05-12T06:44:12.608Z,101529.66
2023-05-12T06:46:41.408Z,101530.56
2023-05-12T06:49:09.695Z,101540.78
2023-05-12T06:51:38.024Z,101543.09
2023-05-12T06:54:07.904Z,101539.22
2023-05-12T06:56:36.117Z,101533.88
2023-05-12T06:59:04.760Z,101541.72
2023-05-12T07:01:34.163Z,101534.84
2023-05-12T07:04:02.598Z,101541.25
2023-05-12T07:06:32.375Z,101551.53
2023-05-12T07:09:00.633Z,101549.25
2023-05-12T07:11:30.252Z,101552.38
2023-05-12T07:13:58.486Z,101559.34
2023-05-12T07:16:26.875Z,101557.00
2023-05-12T07:18:55.157Z,101561.66
2023-05-12T07:21:23.416Z,101559.75
2023-05-12T07:23:51.709Z,101565.66
2023-05-12T07:26:20.847Z,101564.88
2023-05-12T07:28:50.416Z,101566.78
2023-05-12T07:31:18.705Z,101564.63
2023-05-12T07:33:46.882Z,101573.75
2023-05-12T07:36:15.083Z,101569.25
2023-05-12T07:38:43.310Z,101570.13
2023-05-12T07:41:11.571Z,101572.13
2023-05-12T07:43:39.800Z,101568.97
2023-05-12T07:46:09.517Z,101581.47
2023-05-12T07:48:40.276Z,101574.84
2023-05-12T07:51:08.946Z,101578.44
2023-05-12T07:53:37.666Z,101577.63
2023-05-12T07:56:08.112Z,101578.06
2023-05-12T07:58:36.387Z,101577.28
2023-05-12T08:01:06.739Z,101592.19
2023-05-12T08:03:37.000Z,101591.50
2023-05-12T08:06:07.351Z,101591.09
2023-05-12T08:08:36.591Z,101595.38
2023-05-12T08:11:04.968Z,101596.94
2023-05-12T08:13:33.248Z,101595.72
2023-05-12T08:16:01.467Z,101605.03
2023-05-12T08:18:29.801Z,101602.41
2023-05-12T08:20:59.771Z,101601.28
2023-05-12T08:23:28.074Z,101598.69
2023-05-12T08:25:56.378Z,101603.94
2023-05-12T08:28:24.787Z,101600.59
2023-05-12T08:30:53.107Z,101600.59
2023-05-12T08:33:21.444Z,101601.44
2023-05-12T08:35:49.751Z,101614.31
2023-05-12T08:38:19.517Z,101614.31
2023-05-12T08:40:57.394Z,101609.69
2023-05-12T08:43:29.987Z,101609.81
2023-05-12T08:45:58.878Z,101614.19
2023-05-12T08:48:29.336Z,101620.53
2023-05-12T08:50:59.127Z,101614.03
2023-05-12T08:53:30.453Z,101617.66
2023-05-12T08:57:09.978Z,101626.34
2023-05-12T08:58:50.658Z,101626.41
2023-05-12T09:01:19.786Z,101629.84
2023-05-12T09:03:48.390Z,101629.78
2023-05-12T09:06:17.185Z,101628.16
2023-05-12T09:08:47.072Z,101648.06
2023-05-12T09:11:17.587Z,101643.69
2023-05-12T09:13:55.405Z,101646.34
2023-05-12T09:16:26.323Z,101646.38
2023-05-12T09:18:56.421Z,101645.66
2023-05-12T09:21:26.458Z,101647.63
2023-05-12T09:23:58.050Z,101651.63
2023-05-12T09:26:29.050Z,101651.38
2023-05-12T09:29:06.628Z,101649.47
2023-05-12T09:31:35.125Z,101657.34
2023-05-12T09:34:09.299Z,101663.31
2023-05-12T09:36:37.750Z,101659.03
2023-05-12T09:39:10.198Z,101657.06
2023-05-12T09:41:40.990Z,101657.09
2023-05-12T09:44:11.121Z,101656.31
2023-05-12T09:46:40.888Z,101652.78
2023-05-12T09:49:09.208Z,101648.09
2023-05-12T09:51:37.402Z,101650.97
2023-05-12T09:54:08.024Z,101650.66
2023-05-12T09:56:39.628Z,101657.72
2023-05-12T09:59:08.538Z,101658.88
2023-05-12T10:01:37.300Z,101661.28
2023-05-12T10:04:07.954Z,101661.28
2023-05-12T10:06:42.886Z,101659.72
2023-05-12T10:09:21.260Z,101666.09
2023-05-12T10:11:53.754Z,101662.25
2023-05-12T10:14:24.279Z,101662.25
2023-05-12T10:16:53.122Z,101654.06
2023-05-12T10:19:22.467Z,101663.09
2023-05-12T10:21:51.912Z,101667.09
2023-05-12T10:24:22.984Z,101664.78
2023-05-12T10:26:51.304Z,101668.66
2023-05-12T10:29:19.814Z,101671.91
2023-05-12T10:31:48.873Z,101669.59
2023-05-12T10:34:19.794Z,101671.22
2023-05-12T10:36:50.289Z,101675.19
2023-05-12T10:39:19.452Z,101667.75
2023-05-12T10:41:49.775Z,101670.06
2023-05-12T10:44:29.030Z,101664.22
2023-05-12T10:47:00.598Z,101674.00
2023-05-12T10:49:37.552Z,101679.91
2023-05-12T10:52:07.425Z,101674.81
2023-05-12T10:54:44.133Z,101674.06
2023-05-12T10:57:18.856Z,101676.00
2023-05-12T10:59:51.532Z,101674.81
2023-05-12T11:02:26.228Z,101676.81
2023-05-12T11:04:59.912Z,101668.22
2023-05-12T11:07:31.762Z,101671.31
2023-05-12T11:10:03.023Z,101672.91
2023-05-12T11:12:36.473Z,101674.88
2023-05-12T11:15:07.419Z,101677.63
2023-05-12T11:17:39.954Z,101674.91
2023-05-12T11:20:10.728Z,101671.34
2023-05-12T11:22:42.782Z,101684.69
2023-05-12T11:25:12.469Z,101686.66
2023-05-12T11:27:51.007Z,101693.69
2023-05-12T11:30:19.793Z,101689.00
2023-05-12T11:32:48.180Z,101690.16
2023-05-12T11:35:19.798Z,101692.13
2023-05-12T11:37:48.692Z,101693.28
2023-05-12T11:40:18.762Z,101690.94
2023-05-12T11:42:52.391Z,101698.78
2023-05-12T11:45:23.611Z,101695.66
2023-05-12T11:47:51.950Z,101706.63
2023-05-12T11:50:25.805Z,101693.28
2023-05-12T11:52:55.566Z,101700.75
2023-05-12T11:55:25.679Z,101703.13
2023-05-12T11:58:01.461Z,101709.75
2023-05-12T12:00:35.258Z,101712.13
2023-05-12T12:03:14.235Z,101709.75
2023-05-12T12:05:45.348Z,101707.41
2023-05-12T12:08:15.201Z,101713.63
2023-05-12T12:10:46.084Z,101712.06
2023-05-12T12:13:21.178Z,101710.88
2023-05-12T12:15:49.603Z,101711.66
2023-05-12T12:18:18.976Z,101707.34
2023-05-12T12:20:48.465Z,101704.22
2023-05-12T12:23:16.710Z,101716.00
2023-05-12T12:25:44.987Z,101720.31
2023-05-12T12:28:13.261Z,101714.88
2023-05-12T12:30:43.251Z,101720.34
2023-05-12T12:33:11.489Z,101721.91
2023-05-12T12:35:39.826Z,101735.25
2023-05-12T12:38:09.113Z,101726.22
2023-05-12T12:40:37.382Z,101725.03
2023-05-12T12:43:05.633Z,101727.78
2023-05-12T12:45:33.853Z,101727.00
2023-05-12T12:48:03.662Z,101727.81
2023-05-12T12:50:32.308Z,101727.00
2023-05-12T12:53:00.585Z,101721.53
2023-05-12T12:55:29.067Z,101719.16
2023-05-12T12:57:58.185Z,101716.78
2023-05-12T13:00:26.964Z,101717.56
2023-05-12T13:02:55.403Z,101711.25
2023-05-12T13:05:25.023Z,101717.09
2023-05-12T13:07:53.554Z,101717.44
2023-05-12T13:10:21.986Z,101715.88
2023-05-12T13:12:50.255Z,101715.13
2023-05-12T13:15:19.564Z,101710.06
2023-05-12T13:17:48.085Z,101719.44
2023-05-12T13:20:17.480Z,101712.81
2023-05-12T13:22:47.158Z,101707.34
2023-05-12T13:25:15.680Z,101711.63
2023-05-12T13:27:43.949Z,101712.84
2023-05-12T13:30:13.944Z,101708.16
2023-05-12T13:32:42.552Z,101712.09
2023-05-12T13:35:11.654Z,101715.25
2023-05-12T13:37:39.872Z,101724.25
2023-05-12T13:40:11.459Z,101719.56
2023-05-12T13:42:39.760Z,101721.53
2023-05-12T13:45:10.495Z,101721.13
2023-05-12T13:47:39.016Z,101716.78
2023-05-12T13:50:09.228Z,101726.19
2023-05-12T13:52:37.552Z,101725.03
2023-05-12T13:55:06.819Z,101719.94
2023-05-12T13:57:36.441Z,101716.44
2023-05-12T14:00:05.399Z,101710.16
2023-05-12T14:02:34.305Z,101722.31
2023-05-12T14:05:02.683Z,101710.13
2023-05-12T14:07:30.976Z,101719.16
2023-05-12T14:10:00.262Z,101716.03
2023-05-12T14:12:28.675Z,101718.38
2023-05-12T14:15:11.250Z,101707.41
2023-05-12T14:17:48.229Z,101718.00
2023-05-12T14:20:17.669Z,101708.19
2023-05-12T14:22:45.885Z,101705.81
2023-05-12T14:25:14.148Z,101710.13
2023-05-12T14:27:42.409Z,101706.59
2023-05-12T14:30:13.430Z,101708.97
2023-05-12T14:32:42.046Z,101713.66
2023-05-12T14:35:10.710Z,101708.19
2023-05-12T14:37:38.964Z,101709.38
2023-05-12T14:40:09.093Z,101709.75
2023-05-12T14:42:37.966Z,101707.78
2023-05-12T14:45:08.368Z,101712.50
2023-05-12T14:47:38.262Z,101708.56
2023-05-12T14:50:07.928Z,101703.47
2023-05-12T14:52:38.618Z,101711.34
2023-05-12T14:55:11.570Z,101705.84
2023-05-12T14:57:40.273Z,101715.63
2023-05-12T15:00:11.042Z,101711.34
2023-05-12T15:02:41.717Z,101712.88
2023-05-12T15:05:11.791Z,101716.03
2023-05-12T15:07:40.464Z,101713.28
2023-05-12T15:10:09.841Z,101715.25
2023-05-12T15:12:38.102Z,101719.53
2023-05-12T15:15:08.915Z,101721.88
2023-05-12T15:17:38.678Z,101719.94
2023-05-12T15:20:10.144Z,101714.84
2023-05-12T15:22:38.476Z,101720.31
2023-05-12T15:25:08.625Z,101719.91
2023-05-12T15:27:36.930Z,101712.09
2023-05-12T15:30:07.170Z,101713.66
2023-05-12T15:32:39.610Z,101718.38
2023-05-12T15:35:11.150Z,101716.41
2023-05-12T15:37:39.421Z,101720.72
2023-05-12T15:40:09.861Z,101720.31
2023-05-12T15:42:38.088Z,101728.13
2023-05-12T15:45:08.298Z,101737.19
2023-05-12T15:47:37.105Z,101742.69
2023-05-12T15:50:06.088Z,101738.00
2023-05-12T15:52:35.681Z,101741.47
2023-05-12T15:55:04.064Z,101752.09
2023-05-12T15:57:32.273Z,101754.44
2023-05-12T16:00:00.773Z,101748.97
2023-05-12T16:02:29.085Z,101758.34
2023-05-12T16:04:57.318Z,101763.44
2023-05-12T16:07:29.316Z,101755.97
2023-05-12T16:09:59.378Z,101752.06
2023-05-12T16:12:27.585Z,101745.38
2023-05-12T16:14:55.804Z,101752.00
2023-05-12T16:17:24.072Z,101754.34
2023-05-12T16:19:53.642Z,101752.81
2023-05-12T16:22:21.990Z,101744.19
2023-05-12T16:24:50.249Z,101759.03
2023-05-12T16:27:19.814Z,101754.75
2023-05-12T16:29:49.603Z,101764.53
2023-05-12T16:32:18.418Z,101752.78
2023-05-12T16:34:46.788Z,101756.69
2023-05-12T16:37:15.095Z,101753.94
2023-05-12T16:39:43.288Z,101752.75
2023-05-12T16:42:11.787Z,101758.22
2023-05-12T16:44:41.528Z,101765.25
2023-05-12T16:47:09.747Z,101766.81
2023-05-12T16:49:37.981Z,101760.53
2023-05-12T16:52:07.070Z,101765.19
2023-05-12T16:54:35.297Z,101778.13
2023-05-12T16:57:03.723Z,101771.84
2023-05-12T16:59:32.291Z,101769.44
2023-05-12T17:02:02.107Z,101766.31
2023-05-12T17:04:30.566Z,101762.03
2023-05-12T17:06:58.950Z,101772.97
2023-05-12T17:09:27.195Z,101768.66
2023-05-12T17:11:55.549Z,101783.09
2023-05-12T17:14:23.770Z,101784.66
2023-05-12T17:16:52.391Z,101773.69
2023-05-12T17:19:22.325Z,101780.69
2023-05-12T17:21:50.564Z,101774.06
2023-05-12T17:24:18.776Z,101764.22
2023-05-12T17:26:47.167Z,101764.22
2023-05-12T17:29:15.824Z,101765.00
2023-05-12T17:31:44.658Z,101765.78
2023-05-12T17:34:13.043Z,101759.53
2023-05-12T17:36:42.961Z,101750.91
2023-05-12T17:39:14.661Z,101747.75
2023-05-12T17:41:43.952Z,101749.72
2023-05-12T17:44:12.152Z,101743.06
2023-05-12T17:46:40.437Z,101746.94
2023-05-12T17:49:08.791Z,101743.44
2023-05-12T17:51:36.985Z,101753.19
2023-05-12T17:54:07.069Z,101746.53
2023-05-12T17:56:35.331Z,101754.75
2023-05-12T17:59:04.136Z,101766.47
2023-05-12T18:01:32.547Z,101766.84
2023-05-12T18:04:00.849Z,101773.47
2023-05-12T18:06:29.102Z,101767.19
2023-05-12T18:08:58.707Z,101768.34
2023-05-12T18:11:29.176Z,101764.84
2023-05-12T18:13:58.599Z,101771.84
2023-05-12T18:16:29.502Z,101782.00
2023-05-12T18:18:58.466Z,101780.81
2023-05-12T18:21:26.924Z,101783.16
2023-05-12T18:23:55.688Z,101787.03
2023-05-12T18:26:24.073Z,101777.25
2023-05-12T18:28:53.658Z,101778.41
2023-05-12T18:31:21.961Z,101773.34
2023-05-12T18:33:51.483Z,101788.19
2023-05-12T18:36:20.233Z,101783.47
2023-05-12T18:38:48.406Z,101778.75
2023-05-12T18:41:16.632Z,101776.81
2023-05-12T18:43:44.878Z,101784.59
2023-05-12T18:46:14.571Z,101792.03
2023-05-12T18:48:42.842Z,101785.34
2023-05-12T18:51:11.747Z,101791.59
2023-05-12T18:53:40.249Z,101793.53
2023-05-12T18:56:08.452Z,101795.47
2023-05-12T18:58:38.806Z,101800.53
2023-05-12T19:01:07.154Z,101804.81
2023-05-12T19:03:37.221Z,101818.44
2023-05-12T19:06:05.539Z,101816.81
2023-05-12T19:08:33.976Z,101807.78
2023-05-12T19:11:02.305Z,101818.31
2023-05-12T19:13:31.050Z,101827.25
2023-05-12T19:15:59.389Z,101823.72
2023-05-12T19:18:28.021Z,101825.69
2023-05-12T19:20:57.690Z,101825.22
2023-05-12T19:23:26.031Z,101834.59
2023-05-12T19:25:54.724Z,101836.16
2023-05-12T19:28:22.964Z,101840.06
2023-05-12T19:30:51.253Z,101859.16
2023-05-12T19:33:19.514Z,101849.31
2023-05-12T19:35:47.819Z,101861.75
2023-05-12T19:38:18.593Z,101855.00
2023-05-12T19:40:46.937Z,101862.41
2023-05-12T19:43:15.179Z,101865.09
2023-05-12T19:45:43.358Z,101852.94
2023-05-12T19:48:11.837Z,101856.06
2023-05-12T19:50:40.151Z,101863.84
2023-05-12T19:53:08.646Z,101865.78
2023-05-12T19:55:38.346Z,101873.56
2023-05-12T19:58:08.919Z,101877.03
2023-05-12T20:00:39.313Z,101872.31
2023-05-12T20:03:08.214Z,101873.84
2023-05-12T20:05:37.891Z,101875.75
2023-05-12T20:08:06.995Z,101875.38
2023-05-12T20:10:35.423Z,101884.72
2023-05-12T20:13:05.270Z,101890.56
2023-05-12T20:15:34.801Z,101894.03
2023-05-12T20:18:03.108Z,101907.63
2023-05-12T20:20:31.453Z,101906.41
2023-05-12T20:22:59.721Z,101893.47
2023-05-12T20:25:29.819Z,101895.78
2023-05-12T20:27:58.150Z,101896.94
2023-05-12T20:30:28.167Z,101900.03
2023-05-12T20:32:56.486Z,101896.91
2023-05-12T20:35:24.958Z,101900.72
2023-05-12T20:37:53.296Z,101902.28
2023-05-12T20:40:21.775Z,101903.75
2023-05-12T20:42:50.422Z,101900.53
2023-05-12T20:45:19.786Z,101904.03
2023-05-12T20:47:49.742Z,101902.03
2023-05-12T20:50:19.546Z,101900.31
2023-05-12T20:52:49.943Z,101904.19
2023-05-12T20:55:18.190Z,101901.78
2023-05-12T20:57:48.802Z,101903.69
2023-05-12T21:00:18.310Z,101900.09
2023-05-12T21:02:49.096Z,101901.94
2023-05-12T21:05:19.260Z,101903.06
2023-05-12T21:07:47.597Z,101908.44
2023-05-12T21:10:15.808Z,101903.28
2023-05-12T21:12:44.320Z,101905.94
2023-05-12T21:15:13.076Z,101914.84
2023-05-12T21:17:41.750Z,101905.00
2023-05-12T21:20:12.317Z,101904.19
2023-05-12T21:22:41.932Z,101907.22
2023-05-12T21:25:11.358Z,101902.44
2023-05-12T21:27:41.370Z,101905.91
2023-05-12T21:30:11.341Z,101906.28
2023-05-12T21:32:40.606Z,101912.88
2023-05-12T21:35:09.539Z,101911.66
2023-05-12T21:37:38.260Z,101913.94
2023-05-12T21:40:10.003Z,101915.44
2023-05-12T21:42:38.267Z,101924.00
2023-05-12T21:45:08.094Z,101920.06
2023-05-12T21:47:36.799Z,101912.94
2023-05-12T21:50:05.786Z,101912.91
2023-05-12T21:52:34.005Z,101911.66
2023-05-12T21:55:04.645Z,101918.97
2023-05-12T21:57:34.243Z,101917.38
2023-05-12T22:00:04.039Z,101918.53
2023-05-12T22:02:32.453Z,101921.59
2023-05-12T22:05:02.690Z,101922.00
2023-05-12T22:07:31.443Z,101924.25
2023-05-12T22:09:59.666Z,101924.22
2023-05-12T22:12:28.102Z,101931.50
2023-05-12T22:14:57.756Z,101917.34
2023-05-12T22:17:26.091Z,101927.41
2023-05-12T22:19:54.395Z,101928.03
2023-05-12T22:22:22.559Z,101930.69
2023-05-12T22:24:51.836Z,101939.88
2023-05-12T22:27:22.156Z,101944.06
2023-05-12T22:29:50.492Z,101956.63
2023-05-12T22:32:20.045Z,101947.94
2023-05-12T22:34:48.223Z,101952.22
2023-05-12T22:37:16.979Z,101949.94
2023-05-12T22:39:45.453Z,101960.84
2023-05-12T22:42:13.673Z,101957.28
2023-05-12T22:44:41.865Z,101948.97
2023-05-12T22:47:10.468Z,101948.91
2023-05-12T22:49:40.681Z,101954.25
2023-05-12T22:52:09.167Z,101957.69
2023-05-12T22:54:37.590Z,101949.41
2023-05-12T22:57:06.100Z,101950.47
2023-05-12T22:59:34.238Z,101939.94
2023-05-12T23:02:02.485Z,101943.34
2023-05-12T23:04:30.768Z,101937.13
2023-05-12T23:07:00.631Z,101947.22
2023-05-12T23:09:28.809Z,101951.47
2023-05-12T23:11:56.974Z,101953.22
2023-05-12T23:14:25.557Z,101945.66
2023-05-12T23:16:53.850Z,101944.38
2023-05-12T23:19:22.144Z,101946.69
2023-05-12T23:21:50.318Z,101949.75
2023-05-12T23:24:20.190Z,101936.81
2023-05-12T23:26:48.390Z,101947.28
2023-05-12T23:29:16.589Z,101950.13
2023-05-12T23:31:44.788Z,101939.41
2023-05-12T23:34:12.975Z,101945.09
2023-05-12T23:36:41.131Z,101943.88
2023-05-12T23:39:09.769Z,101938.81
2023-05-12T23:41:39.692Z,101941.38
2023-05-12T23:44:07.951Z,101937.78
2023-05-12T23:46:36.213Z,101941.09
2023-05-12T23:49:06.731Z,101929.69
2023-05-12T23:51:35.693Z,101935.72
2023-05-12T23:54:03.888Z,101939.53
2023-05-12T23:56:32.090Z,101941.41
2023-05-12T23:59:01.725Z,101937.88
